Videy — TFJI — position and weather

sailwx.info

Track history (hours):
 
Tides and Currents Weather Stations Pressure Air Temp Water Temp Dewpoint Dewpoint Depression Visibility Wind Speed Wind Dir Waves Ship Positions

Videy

Last reported at 2017-Dec-15 09:42 UTC. Time now 2018-Jan-19 17:39 UTC.
Position N 39°17' W 010°19'.
Warning: this ship's position is 35 days out of date.

Type: Fishing. MMSI: 251107000.

Date/timePositionNaut miles runAvg speedWind from/ knotsBaromVisibWave heightAir tempDewpointWater temp
2017-Dec-15 09:42N 39°17' W 010°19'211.2
2017-Dec-15 09:30N 39°15' W 010°17'611.2
2017-Dec-15 09:00N 39°11' W 010°14'611.2
2017-Dec-15 08:30N 39°06' W 010°09'611.2
2017-Dec-15 08:00N 39°02' W 010°04'611.1
2017-Dec-15 07:30N 38°58' W 009°60'611.2
2017-Dec-15 07:00N 38°52' W 009°58'611.4
2017-Dec-15 06:30N 38°47' W 009°57'611.1
2017-Dec-15 06:00N 38°41' W 009°55'611.3
2017-Dec-15 05:30N 38°36' W 009°53'611.2
2017-Dec-15 05:00N 38°31' W 009°50'611.4
2017-Dec-15 04:30N 38°25' W 009°48'611.2
2017-Dec-15 04:00N 38°20' W 009°46'1711.2
2017-Dec-15 02:30N 38°04' W 009°41'23010.3
2017-Dec-14 04:10N 35°58' W 005°39'1 9.4
2017-Dec-14 04:00N 35°58' W 005°37'4 8.8
2017-Dec-14 03:30N 35°59' W 005°32'5 9.4
2017-Dec-14 03:00N 36°01' W 005°27'5 9.2
2017-Dec-14 02:30N 36°04' W 005°22'5 9.1
2017-Dec-14 02:00N 36°04' W 005°17'611.9
2017-Dec-14 01:30N 36°05' W 005°10'21812.2
2017-Dec-13 07:37N 36°41' W 000°43'112.5
2017-Dec-13 07:30N 36°41' W 000°41'612.6
2017-Dec-13 07:00N 36°43' W 000°34'612.6
2017-Dec-13 06:30N 36°44' W 000°26'612.3
2017-Dec-13 06:00N 36°45' W 000°18'612.3
2017-Dec-13 05:30N 36°46' W 000°11'  
2017-Dec-10 16:41N 36°34' E 014°12'411.9
2017-Dec-10 16:23N 36°33' E 014°16'511.8
2017-Dec-10 15:59N 36°32' E 014°22'611.6
2017-Dec-10 15:30N 36°31' E 014°29'511.2
2017-Dec-10 15:00N 36°30' E 014°36'43810.7
2017-Dec-08 22:16N 37°01' E 023°40'612.5
2017-Dec-08 21:45N 37°07' E 023°44'1212.3
2017-Dec-08 20:45N 37°17' E 023°52'312.4
2017-Dec-08 20:30N 37°20' E 023°54'612.9
2017-Dec-08 20:00N 37°26' E 023°59'612.6
2017-Dec-08 19:30N 37°31' E 024°03'612.1
2017-Dec-08 19:00N 37°36' E 024°07'612.4
2017-Dec-08 18:30N 37°41' E 024°12'612.4
2017-Dec-08 18:00N 37°45' E 024°17'812.4
2017-Dec-08 17:21N 37°50' E 024°25'412.8
2017-Dec-08 17:00N 37°53' E 024°30'612.3
2017-Dec-08 16:30N 37°57' E 024°35'  
Track history (hours):
 
Tides and Currents Weather Stations Pressure Air Temp Water Temp Dewpoint Dewpoint Depression Visibility Wind Speed Wind Dir Waves Ship Positions

Videy

Last reported at 2017-Dec-15 09:42 UTC. Time now 2018-Jan-19 17:39 UTC.
Position N 39°17' W 010°19'.
Warning: this ship's position is 35 days out of date.

Type: Fishing. MMSI: 251107000.

Date/timePositionNaut miles runAvg speedWind from/ knotsBaromVisibWave heightAir tempDewpointWater temp
2017-Dec-15 09:42N 39°17' W 010°19'211.2
2017-Dec-15 09:30N 39°15' W 010°17'611.2
2017-Dec-15 09:00N 39°11' W 010°14'611.2
2017-Dec-15 08:30N 39°06' W 010°09'611.2
2017-Dec-15 08:00N 39°02' W 010°04'611.1
2017-Dec-15 07:30N 38°58' W 009°60'611.2
2017-Dec-15 07:00N 38°52' W 009°58'611.4
2017-Dec-15 06:30N 38°47' W 009°57'611.1
2017-Dec-15 06:00N 38°41' W 009°55'611.3
2017-Dec-15 05:30N 38°36' W 009°53'611.2
2017-Dec-15 05:00N 38°31' W 009°50'611.4
2017-Dec-15 04:30N 38°25' W 009°48'611.2
2017-Dec-15 04:00N 38°20' W 009°46'1711.2
2017-Dec-15 02:30N 38°04' W 009°41'23010.3
2017-Dec-14 04:10N 35°58' W 005°39'1 9.4
2017-Dec-14 04:00N 35°58' W 005°37'4 8.8
2017-Dec-14 03:30N 35°59' W 005°32'5 9.4
2017-Dec-14 03:00N 36°01' W 005°27'5 9.2
2017-Dec-14 02:30N 36°04' W 005°22'5 9.1
2017-Dec-14 02:00N 36°04' W 005°17'611.9
2017-Dec-14 01:30N 36°05' W 005°10'21812.2
2017-Dec-13 07:37N 36°41' W 000°43'112.5
2017-Dec-13 07:30N 36°41' W 000°41'612.6
2017-Dec-13 07:00N 36°43' W 000°34'612.6
2017-Dec-13 06:30N 36°44' W 000°26'612.3
2017-Dec-13 06:00N 36°45' W 000°18'612.3
2017-Dec-13 05:30N 36°46' W 000°11'  
2017-Dec-10 16:41N 36°34' E 014°12'411.9
2017-Dec-10 16:23N 36°33' E 014°16'511.8
2017-Dec-10 15:59N 36°32' E 014°22'611.6
2017-Dec-10 15:30N 36°31' E 014°29'511.2
2017-Dec-10 15:00N 36°30' E 014°36'43810.7
2017-Dec-08 22:16N 37°01' E 023°40'612.5
2017-Dec-08 21:45N 37°07' E 023°44'1212.3
2017-Dec-08 20:45N 37°17' E 023°52'312.4
2017-Dec-08 20:30N 37°20' E 023°54'612.9
2017-Dec-08 20:00N 37°26' E 023°59'612.6
2017-Dec-08 19:30N 37°31' E 024°03'612.1
2017-Dec-08 19:00N 37°36' E 024°07'612.4
2017-Dec-08 18:30N 37°41' E 024°12'612.4
2017-Dec-08 18:00N 37°45' E 024°17'812.4
2017-Dec-08 17:21N 37°50' E 024°25'412.8
2017-Dec-08 17:00N 37°53' E 024°30'612.3
2017-Dec-08 16:30N 37°57' E 024°35'  

Dump ship's entire track history